CheckWX is a tool to help pilots better visualize weather data.  It is not intended as a substitute for an official pre-flight weather briefing.

22:43:43 UTC

KUNV TAF
University Park Airport
State College, Pennsylvania, USA
KUNV 232332Z 2400/2424 34006KT P6SM VCSH BKN040 FM240500 07002KT P6SM OVC015 FM240600 VRB02KT P6SM OVC010 FM241600 15005KT P6SM OVC015 FM241800 16006KT P6SM OVC050

May-24@
00:00 UTC

May-24 @ 00:00 UTC

May-24@
05:00 UTC

May-24 @ 05:00 UTC

TAF KUNV 232332Z 2400/2424 34006KT P6SM VCSH BKN040

Expired

Wind
  • 340° at 6 KTS
Conditions
Area Showers
Cloud Levels
  • Broken at 4,000' AGL

May-24@
05:00 UTC

May-24 @ 05:00 UTC

May-24@
06:00 UTC

May-24 @ 06:00 UTC

FM240500 07002KT P6SM OVC015

Expired

Wind
  • 070° at 2 KTS
Cloud Levels
  • Overcast at 1,500' AGL

May-24@
06:00 UTC

May-24 @ 06:00 UTC

May-24@
16:00 UTC

May-24 @ 16:00 UTC

FM240600 VRB02KT P6SM OVC010

Expired

Wind
  • Variable at 2 KTS
Cloud Levels
  • Overcast at 1,000' AGL

May-24@
16:00 UTC

May-24 @ 16:00 UTC

May-24@
18:00 UTC

May-24 @ 18:00 UTC

FM241600 15005KT P6SM OVC015

Expired

Wind
  • 150° at 5 KTS
Cloud Levels
  • Overcast at 1,500' AGL

May-24@
18:00 UTC

May-24 @ 18:00 UTC

May-25@
00:00 UTC

May-25 @ 00:00 UTC

FM241800 16006KT P6SM OVC050

From

From Standard forecast or significant change

Wind
  • 160° at 6 KTS
Cloud Levels
  • Overcast at 5,000' AGL